createdAt,value
2019-03-22T00:02:06.657Z,49.87
2019-03-22T00:04:36.015Z,54.30
2019-03-22T00:07:05.483Z,54.33
2019-03-22T00:09:35.040Z,51.50
2019-03-22T00:12:04.544Z,41.73
2019-03-22T00:14:33.868Z,45.57
2019-03-22T00:17:03.447Z,45.33
2019-03-22T00:19:34.269Z,53.17
2019-03-22T00:22:03.915Z,45.47
2019-03-22T00:24:33.299Z,49.30
2019-03-22T00:27:02.852Z,49.63
2019-03-22T00:29:32.245Z,50.73
2019-03-22T00:32:01.807Z,48.90
2019-03-22T00:34:31.229Z,45.27
2019-03-22T00:37:00.910Z,54.37
2019-03-22T00:39:30.484Z,46.47
2019-03-22T00:41:59.990Z,51.23
2019-03-22T00:44:29.458Z,47.63
2019-03-22T00:47:00.314Z,48.77
2019-03-22T00:49:29.777Z,51.07
2019-03-22T00:51:59.208Z,48.87
2019-03-22T00:54:28.575Z,49.50
2019-03-22T00:56:59.551Z,50.50
2019-03-22T00:59:28.881Z,48.23
2019-03-22T01:01:58.258Z,50.00
2019-03-22T01:04:27.635Z,45.90
2019-03-22T01:17:45.399Z,47.23
2019-03-22T01:20:15.152Z,49.80
2019-03-22T01:22:44.635Z,50.87
2019-03-22T01:25:14.123Z,53.67
2019-03-22T01:27:43.592Z,51.53
2019-03-22T01:30:13.543Z,52.10
2019-03-22T01:32:42.922Z,48.47
2019-03-22T01:35:12.601Z,52.13
2019-03-22T01:37:41.974Z,47.50
2019-03-22T01:40:11.662Z,55.97
2019-03-22T01:42:41.053Z,53.50
2019-03-22T01:45:11.213Z,59.67
2019-03-22T01:47:40.589Z,56.50
2019-03-22T01:50:11.654Z,58.07
2019-03-22T01:52:41.378Z,55.37
2019-03-22T01:55:11.461Z,58.33
2019-03-22T01:57:51.935Z,52.90
2019-03-22T02:00:12.560Z,58.73
2019-03-22T02:02:41.921Z,55.17
2019-03-22T02:05:11.767Z,57.43
2019-03-22T02:07:41.259Z,55.50
2019-03-22T02:10:11.710Z,54.40
2019-03-22T02:12:42.230Z,56.17
2019-03-22T02:15:13.405Z,55.63
2019-03-22T02:17:43.261Z,59.97
2019-03-22T02:20:13.090Z,67.97
2019-03-22T02:22:42.617Z,63.50
2019-03-22T02:25:12.327Z,64.77
2019-03-22T02:27:41.900Z,63.67
2019-03-22T02:30:11.566Z,64.80
2019-03-22T02:32:41.031Z,67.63
2019-03-22T02:35:26.990Z,66.07
2019-03-22T02:37:42.314Z,59.67
2019-03-22T02:40:12.673Z,70.13
2019-03-22T02:42:42.002Z,70.50
2019-03-22T02:45:11.740Z,67.13
2019-03-22T02:47:41.259Z,68.23
2019-03-22T02:50:17.887Z,68.17
2019-03-22T02:52:42.575Z,66.67
2019-03-22T02:55:12.301Z,73.27
2019-03-22T02:57:41.722Z,72.80
2019-03-22T03:00:11.776Z,73.87
2019-03-22T03:02:41.412Z,65.63
2019-03-22T03:05:11.357Z,72.30
2019-03-22T03:07:40.741Z,72.50
2019-03-22T03:10:11.092Z,66.80
2019-03-22T03:12:40.453Z,63.50
2019-03-22T03:15:11.053Z,60.63
2019-03-22T03:17:40.574Z,70.23
2019-03-22T03:20:12.899Z,65.67
2019-03-22T03:22:42.280Z,66.13
2019-03-22T03:25:12.332Z,68.00
2019-03-22T03:27:41.848Z,67.30
2019-03-22T03:36:19.086Z,66.10
2019-03-22T03:38:48.428Z,67.50
2019-03-22T03:41:17.863Z,69.10
2019-03-22T03:43:47.321Z,73.63
2019-03-22T03:46:16.729Z,68.70
2019-03-22T03:48:46.165Z,74.17
2019-03-22T03:51:15.631Z,68.53
2019-03-22T03:53:45.105Z,68.67
2019-03-22T03:56:14.557Z,66.77
2019-03-22T03:58:52.213Z,69.63
2019-03-22T04:01:15.555Z,59.97
2019-03-22T04:03:44.917Z,66.03
2019-03-22T04:06:14.290Z,64.87
2019-03-22T04:08:43.737Z,67.77
2019-03-22T04:11:13.206Z,63.67
2019-03-22T04:13:42.686Z,65.90
2019-03-22T04:16:12.078Z,65.43
2019-03-22T04:18:41.588Z,63.93
2019-03-22T04:21:11.103Z,63.23
2019-03-22T04:23:40.645Z,66.47
2019-03-22T04:26:10.040Z,68.83
2019-03-22T04:28:39.588Z,66.53
2019-03-22T04:31:09.140Z,64.37
2019-03-22T04:33:39.031Z,65.47
2019-03-22T04:36:08.418Z,63.87
2019-03-22T04:38:37.831Z,68.70
2019-03-22T04:41:07.333Z,69.10
2019-03-22T04:43:37.810Z,63.60
2019-03-22T04:46:08.176Z,68.53
2019-03-22T04:48:38.931Z,67.10
2019-03-22T04:51:09.591Z,63.97
2019-03-22T04:53:44.256Z,71.97
2019-03-22T04:56:16.714Z,65.67
2019-03-22T04:58:49.156Z,75.00
2019-03-22T05:01:20.364Z,70.87
2019-03-22T05:03:50.159Z,70.17
2019-03-22T05:06:21.761Z,68.27
2019-03-22T05:08:52.847Z,69.43
2019-03-22T05:11:23.220Z,70.37
2019-03-22T05:13:56.231Z,69.13
2019-03-22T05:16:26.753Z,71.50
2019-03-22T05:18:57.484Z,70.60
2019-03-22T05:21:28.701Z,71.20
2019-03-22T05:24:00.280Z,76.37
2019-03-22T05:26:32.390Z,72.33
2019-03-22T05:29:02.355Z,74.97
2019-03-22T05:32:10.219Z,67.83
2019-03-22T05:34:39.625Z,74.37
2019-03-22T05:37:09.309Z,72.93
2019-03-22T05:39:41.079Z,76.50
2019-03-22T05:42:12.507Z,74.90
2019-03-22T05:44:41.926Z,84.60
2019-03-22T05:47:11.514Z,77.90
2019-03-22T05:49:41.092Z,80.60
2019-03-22T05:52:10.678Z,79.97
2019-03-22T05:54:40.021Z,77.17
2019-03-22T05:57:13.606Z,71.63
2019-03-22T05:59:42.680Z,80.20
2019-03-22T06:02:12.084Z,74.03
2019-03-22T06:04:41.617Z,74.67
2019-03-22T06:07:11.200Z,81.93
2019-03-22T06:09:41.783Z,81.30
2019-03-22T06:12:11.207Z,80.80
2019-03-22T06:14:40.796Z,76.47
2019-03-22T06:17:10.286Z,79.73
2019-03-22T06:19:42.354Z,74.23
2019-03-22T06:22:36.526Z,78.37
2019-03-22T06:25:06.269Z,82.10
2019-03-22T06:27:35.811Z,87.20
2019-03-22T06:30:07.641Z,85.60
2019-03-22T06:32:37.229Z,83.50
2019-03-22T06:35:07.055Z,83.57
2019-03-22T06:37:36.560Z,83.47
2019-03-22T06:40:06.552Z,83.63
2019-03-22T06:42:35.951Z,80.50
2019-03-22T06:45:06.003Z,92.07
2019-03-22T06:47:35.652Z,87.10
2019-03-22T06:50:05.930Z,85.97
2019-03-22T06:52:35.531Z,85.50
2019-03-22T06:55:06.414Z,85.53
2019-03-22T06:57:35.973Z,88.33
2019-03-22T07:00:07.413Z,92.40
2019-03-22T07:02:37.050Z,84.43
2019-03-22T07:05:07.049Z,95.63
2019-03-22T07:07:36.906Z,93.50
2019-03-22T07:10:06.721Z,89.50
2019-03-22T07:12:36.203Z,95.93
2019-03-22T07:15:06.374Z,91.97
2019-03-22T07:17:35.817Z,97.40
2019-03-22T07:20:06.016Z,102.27
2019-03-22T07:22:35.420Z,97.70
2019-03-22T07:25:05.397Z,98.87
2019-03-22T07:27:34.888Z,105.47
2019-03-22T07:30:04.853Z,102.40
2019-03-22T07:32:34.373Z,104.93
2019-03-22T07:35:03.999Z,100.77
2019-03-22T07:37:33.327Z,105.67
2019-03-22T07:40:02.699Z,100.70
2019-03-22T07:42:32.536Z,102.93
2019-03-22T07:45:01.967Z,100.40
2019-03-22T07:47:31.384Z,83.63
2019-03-22T07:50:01.089Z,86.87
2019-03-22T07:52:30.544Z,91.03
2019-03-22T07:55:00.152Z,84.70
2019-03-22T07:57:29.802Z,86.03
2019-03-22T07:59:59.170Z,92.03
2019-03-22T08:02:28.651Z,79.23
2019-03-22T08:04:58.309Z,80.43
2019-03-22T08:07:27.809Z,69.63
2019-03-22T08:09:57.385Z,79.67
2019-03-22T08:12:29.162Z,77.17
2019-03-22T08:14:58.532Z,81.50
2019-03-22T08:17:28.089Z,72.30
2019-03-22T08:19:57.637Z,66.37
2019-03-22T08:22:27.209Z,63.97
2019-03-22T08:24:56.544Z,69.80
2019-03-22T08:27:25.940Z,68.07
2019-03-22T08:29:55.316Z,70.67
2019-03-22T08:32:24.727Z,68.40
2019-03-22T08:34:54.247Z,71.13
2019-03-22T08:37:23.665Z,69.73
2019-03-22T08:39:55.799Z,72.93
2019-03-22T08:42:25.824Z,66.33
2019-03-22T08:44:55.216Z,72.87
2019-03-22T08:47:33.678Z,70.77
2019-03-22T08:49:56.130Z,84.30
2019-03-22T08:52:25.458Z,78.87
2019-03-22T08:54:54.776Z,70.57
2019-03-22T08:57:25.206Z,71.03
2019-03-22T08:59:54.704Z,71.93
2019-03-22T09:02:24.149Z,68.73
2019-03-22T09:04:53.646Z,70.70
2019-03-22T09:07:24.411Z,69.30
2019-03-22T09:09:54.143Z,67.63
2019-03-22T09:12:23.632Z,59.60
2019-03-22T09:14:52.944Z,65.97
2019-03-22T09:17:22.322Z,67.47
2019-03-22T09:19:51.780Z,63.30
2019-03-22T09:22:21.099Z,61.03
2019-03-22T09:24:50.478Z,64.67
2019-03-22T09:27:22.313Z,63.00
2019-03-22T09:29:51.842Z,63.03
2019-03-22T09:32:21.509Z,63.33
2019-03-22T09:34:50.845Z,62.23
2019-03-22T09:37:20.224Z,61.50
2019-03-22T09:39:49.734Z,57.60
2019-03-22T09:42:19.070Z,61.07
2019-03-22T09:44:48.707Z,64.33
2019-03-22T09:47:18.524Z,59.53
2019-03-22T09:49:51.021Z,62.33
2019-03-22T09:52:19.224Z,58.43
2019-03-22T09:54:48.564Z,60.00
2019-03-22T09:57:17.979Z,66.23
2019-03-22T09:59:47.456Z,58.97
2019-03-22T10:02:17.010Z,61.90
2019-03-22T10:04:49.388Z,59.87
2019-03-22T10:07:18.887Z,70.33
2019-03-22T10:09:48.233Z,56.03
2019-03-22T10:12:17.616Z,63.53
2019-03-22T10:14:47.288Z,63.63
2019-03-22T10:17:17.069Z,56.93
2019-03-22T10:19:46.633Z,59.63
2019-03-22T10:22:16.015Z,58.50
2019-03-22T10:24:45.668Z,56.57
2019-03-22T10:27:15.432Z,59.97
2019-03-22T10:29:44.895Z,62.40
2019-03-22T10:32:14.262Z,66.97
2019-03-22T10:34:43.818Z,60.43
2019-03-22T10:37:13.490Z,65.87
2019-03-22T10:39:42.991Z,69.20
2019-03-22T10:42:12.601Z,69.97
2019-03-22T10:44:42.658Z,63.70
2019-03-22T10:47:12.428Z,73.93
2019-03-22T10:49:42.345Z,63.53
2019-03-22T10:52:11.847Z,65.40
2019-03-22T10:54:41.391Z,59.20
2019-03-22T10:57:11.424Z,60.00
2019-03-22T10:59:41.069Z,67.30
2019-03-22T11:02:10.640Z,68.43
2019-03-22T11:04:40.212Z,64.63
2019-03-22T11:07:10.143Z,69.60
2019-03-22T11:09:39.601Z,70.50
2019-03-22T11:12:12.420Z,63.83
2019-03-22T11:15:01.419Z,67.20
2019-03-22T11:17:31.420Z,62.70
2019-03-22T11:20:00.917Z,70.93
2019-03-22T11:22:30.474Z,69.37
2019-03-22T11:25:00.279Z,64.50
2019-03-22T11:27:30.041Z,72.97
2019-03-22T11:29:59.527Z,68.77
2019-03-22T11:32:29.074Z,65.83
2019-03-22T11:34:58.779Z,67.60
2019-03-22T11:37:28.447Z,67.40
2019-03-22T11:39:58.487Z,67.40
2019-03-22T11:42:28.115Z,71.93
2019-03-22T11:45:00.649Z,65.10
2019-03-22T11:47:30.239Z,64.77
2019-03-22T11:49:59.737Z,61.93
2019-03-22T11:52:30.039Z,62.60
2019-03-22T11:54:59.499Z,60.43
2019-03-22T11:57:29.142Z,67.47
2019-03-22T11:59:58.681Z,64.37
2019-03-22T12:02:30.119Z,63.33
2019-03-22T12:04:59.281Z,69.33
2019-03-22T12:07:30.290Z,64.23
2019-03-22T12:10:05.637Z,61.70
2019-03-22T12:12:44.370Z,68.83
2019-03-22T12:15:16.535Z,66.00
2019-03-22T12:17:46.278Z,68.00
2019-03-22T12:20:17.384Z,61.33
2019-03-22T12:22:46.968Z,59.60
2019-03-22T12:25:17.527Z,62.83
2019-03-22T12:27:48.481Z,64.43
2019-03-22T12:30:18.371Z,66.87
2019-03-22T12:32:47.871Z,59.37
2019-03-22T12:35:17.909Z,61.77
2019-03-22T12:37:47.683Z,59.77
2019-03-22T12:40:18.779Z,61.10
2019-03-22T12:42:48.999Z,61.53
2019-03-22T12:45:23.073Z,59.73
2019-03-22T12:47:52.596Z,62.57
2019-03-22T12:50:22.889Z,63.40
2019-03-22T12:52:53.901Z,66.97
2019-03-22T12:55:23.477Z,58.00
2019-03-22T12:57:53.074Z,60.27
2019-03-22T13:00:22.799Z,62.40
2019-03-22T13:02:52.691Z,59.57
2019-03-22T13:05:23.037Z,60.53
2019-03-22T13:07:52.713Z,65.00
2019-03-22T13:10:23.560Z,61.17
2019-03-22T13:12:53.005Z,64.13
2019-03-22T13:15:22.817Z,67.70
2019-03-22T13:17:52.367Z,63.77
2019-03-22T13:20:26.878Z,64.57
2019-03-22T13:22:56.221Z,67.07
2019-03-22T13:25:43.196Z,60.37
2019-03-22T13:28:13.636Z,65.07
2019-03-22T13:30:43.029Z,62.53
2019-03-22T13:33:12.424Z,64.53
2019-03-22T13:35:41.992Z,65.90
2019-03-22T13:38:14.659Z,62.87
2019-03-22T13:40:44.184Z,64.47
2019-03-22T13:43:15.896Z,63.93
2019-03-22T13:46:01.133Z,62.83
2019-03-22T13:48:30.489Z,64.50
2019-03-22T13:51:00.143Z,64.33
2019-03-22T13:53:29.824Z,62.70
2019-03-22T13:56:02.959Z,59.83
2019-03-22T13:58:35.034Z,63.73
2019-03-22T14:01:06.456Z,65.00
2019-03-22T14:03:35.855Z,60.70
2019-03-22T14:06:10.361Z,61.30
2019-03-22T14:08:39.898Z,66.60
2019-03-22T14:11:09.380Z,63.57
2019-03-22T14:13:39.796Z,62.43
2019-03-22T14:16:11.874Z,63.53
2019-03-22T14:18:41.379Z,60.63
2019-03-22T14:21:14.037Z,62.87
2019-03-22T14:23:45.629Z,61.87
2019-03-22T14:26:15.055Z,63.93
2019-03-22T14:28:44.433Z,65.27
2019-03-22T14:31:13.777Z,59.93
2019-03-22T14:33:43.183Z,67.73
2019-03-22T14:36:12.639Z,64.10
2019-03-22T14:38:44.194Z,61.43
2019-03-22T14:41:13.276Z,56.63
2019-03-22T14:43:43.171Z,58.80
2019-03-22T14:46:12.654Z,63.70
2019-03-22T14:48:42.101Z,60.83
2019-03-22T14:51:11.615Z,63.10
2019-03-22T14:54:26.873Z,59.20
2019-03-22T14:56:58.615Z,62.20
2019-03-22T14:59:28.063Z,56.80
2019-03-22T15:01:57.642Z,58.37
2019-03-22T15:04:27.002Z,56.53
2019-03-22T15:06:56.389Z,60.10
2019-03-22T15:09:26.098Z,59.90
2019-03-22T15:11:55.564Z,57.60
2019-03-22T15:14:42.630Z,56.27
2019-03-22T15:17:22.913Z,55.03
2019-03-22T15:20:10.101Z,59.53
2019-03-22T15:23:04.295Z,58.27
2019-03-22T15:25:52.688Z,56.33
2019-03-22T15:28:35.686Z,60.30
2019-03-22T15:31:30.193Z,56.70
2019-03-22T15:34:07.252Z,56.05
2019-03-22T15:36:54.780Z,50.63
2019-03-22T15:39:43.489Z,56.90
2019-03-22T15:42:13.257Z,55.78
2019-03-22T15:44:42.709Z,62.75
2019-03-22T15:47:12.197Z,54.58
2019-03-22T15:49:41.770Z,58.15
2019-03-22T15:52:11.190Z,55.23
2019-03-22T15:54:43.507Z,59.55
2019-03-22T15:57:13.104Z,55.35
2019-03-22T15:59:42.583Z,55.50
2019-03-22T16:02:12.231Z,55.83
2019-03-22T16:04:41.775Z,56.50
2019-03-22T16:07:11.199Z,53.20
2019-03-22T16:09:40.803Z,62.17
2019-03-22T16:12:10.251Z,56.73
2019-03-22T16:14:41.975Z,58.55
2019-03-22T16:17:11.425Z,57.48
2019-03-22T16:19:41.127Z,57.07
2019-03-22T16:22:10.526Z,55.45
2019-03-22T16:24:40.098Z,55.25
2019-03-22T16:27:09.606Z,53.48
2019-03-22T16:29:39.028Z,52.53
2019-03-22T16:32:08.524Z,60.43
2019-03-22T16:34:38.074Z,57.03
2019-03-22T16:37:07.541Z,61.18
2019-03-22T16:39:36.979Z,56.77
2019-03-22T16:42:06.426Z,59.55
2019-03-22T16:44:35.874Z,63.48
2019-03-22T16:47:05.330Z,60.15
2019-03-22T16:49:34.784Z,63.57
2019-03-22T16:52:04.390Z,60.60
2019-03-22T16:54:33.862Z,60.80
2019-03-22T16:57:03.521Z,60.93
2019-03-22T16:59:32.876Z,55.97
2019-03-22T17:02:02.428Z,60.27
2019-03-22T17:04:32.019Z,61.03
2019-03-22T17:07:01.373Z,57.63
2019-03-22T17:09:53.705Z,60.53
2019-03-22T17:12:36.270Z,60.20
2019-03-22T17:15:06.056Z,61.47
2019-03-22T17:17:44.919Z,60.67
2019-03-22T17:23:16.873Z,62.80
2019-03-22T17:25:46.284Z,60.17
2019-03-22T17:28:15.739Z,64.37
2019-03-22T17:30:45.938Z,62.23
2019-03-22T17:33:16.023Z,59.37
2019-03-22T17:35:51.451Z,67.10
2019-03-22T17:38:21.150Z,63.37
2019-03-22T17:41:01.431Z,60.27
2019-03-22T17:43:32.713Z,64.30
2019-03-22T17:54:02.509Z,65.20
2019-03-22T17:56:33.569Z,62.17
2019-03-22T17:59:08.094Z,60.67
2019-03-22T18:01:44.929Z,62.20
2019-03-22T18:04:23.700Z,62.40
2019-03-22T18:06:46.054Z,67.70
2019-03-22T18:09:15.639Z,63.50
2019-03-22T18:11:45.094Z,62.13
2019-03-22T18:14:14.434Z,55.17
2019-03-22T18:16:44.021Z,61.43
2019-03-22T18:19:13.535Z,63.63
2019-03-22T18:21:43.110Z,61.93
2019-03-22T18:24:12.532Z,61.03
2019-03-22T18:26:42.190Z,63.27
2019-03-22T18:29:11.810Z,68.30
2019-03-22T18:31:41.148Z,64.03
2019-03-22T18:34:10.584Z,61.20
2019-03-22T18:36:40.095Z,60.10
2019-03-22T18:39:10.631Z,61.83
2019-03-22T18:41:39.996Z,61.37
2019-03-22T18:44:09.715Z,67.23
2019-03-22T18:46:39.360Z,67.70
2019-03-22T18:49:09.085Z,67.47
2019-03-22T18:51:38.540Z,65.37
2019-03-22T18:54:08.186Z,61.40
2019-03-22T18:56:37.760Z,71.33
2019-03-22T18:59:07.349Z,70.90
2019-03-22T19:01:36.827Z,68.63
2019-03-22T19:04:06.315Z,72.33
2019-03-22T19:06:37.693Z,72.80
2019-03-22T19:09:08.471Z,75.90
2019-03-22T19:11:37.969Z,74.50
2019-03-22T19:14:07.434Z,75.47
2019-03-22T19:16:36.877Z,74.40
2019-03-22T19:19:06.350Z,75.93
2019-03-22T19:21:35.787Z,79.67
2019-03-22T19:24:05.172Z,75.30
2019-03-22T19:26:34.618Z,75.43
2019-03-22T19:29:04.053Z,75.70
2019-03-22T19:31:33.486Z,83.40
2019-03-22T19:34:02.857Z,81.00
2019-03-22T19:36:32.367Z,78.30
2019-03-22T19:39:01.833Z,84.93
2019-03-22T19:41:31.278Z,80.27
2019-03-22T19:44:00.911Z,83.07
2019-03-22T19:46:30.387Z,82.50
2019-03-22T19:48:59.862Z,78.10
2019-03-22T19:51:29.213Z,81.40
2019-03-22T19:53:58.628Z,79.47
2019-03-22T19:56:28.117Z,85.47
2019-03-22T19:58:57.679Z,85.90
2019-03-22T20:01:27.018Z,96.03
2019-03-22T20:03:56.501Z,82.77
2019-03-22T20:06:25.942Z,85.30
2019-03-22T20:08:55.545Z,82.20
2019-03-22T20:11:27.450Z,88.03
2019-03-22T20:13:56.917Z,83.80
2019-03-22T20:16:26.421Z,77.07
2019-03-22T20:18:55.858Z,86.57
2019-03-22T20:21:25.207Z,79.77
2019-03-22T20:23:54.720Z,80.17
2019-03-22T20:26:24.287Z,84.67
2019-03-22T20:28:53.720Z,84.57
2019-03-22T20:31:23.098Z,89.30
2019-03-22T20:33:53.116Z,87.77
2019-03-22T20:36:22.676Z,90.23
2019-03-22T20:38:52.184Z,90.73
2019-03-22T20:41:21.573Z,86.13
2019-03-22T20:43:51.071Z,84.63
2019-03-22T20:46:20.434Z,88.97
2019-03-22T20:48:51.492Z,85.67
2019-03-22T20:51:20.815Z,86.50
2019-03-22T20:53:50.841Z,96.43
2019-03-22T20:56:20.412Z,83.80
2019-03-22T20:58:49.762Z,88.77
2019-03-22T21:01:19.246Z,88.50
2019-03-22T21:03:50.151Z,90.30
2019-03-22T21:06:20.004Z,93.03
2019-03-22T21:08:49.485Z,94.90
2019-03-22T21:11:18.827Z,91.87
2019-03-22T21:13:49.688Z,92.80
2019-03-22T21:16:19.415Z,95.20
2019-03-22T21:18:48.807Z,87.83
2019-03-22T21:21:18.281Z,93.80
2019-03-22T21:23:47.662Z,86.50
2019-03-22T21:26:17.236Z,98.87
2019-03-22T21:28:48.805Z,90.33
2019-03-22T21:31:18.360Z,92.17
2019-03-22T21:33:47.792Z,85.73
2019-03-22T21:36:17.313Z,91.20
2019-03-22T21:38:46.832Z,96.17
2019-03-22T21:41:16.255Z,90.00
2019-03-22T21:43:45.655Z,93.40
2019-03-22T21:46:15.135Z,95.00
2019-03-22T21:48:44.615Z,98.53
2019-03-22T21:51:14.359Z,90.20
2019-03-22T21:53:43.718Z,98.27
2019-03-22T21:56:13.254Z,95.23
2019-03-22T21:58:42.735Z,95.03
2019-03-22T22:01:12.160Z,104.73
2019-03-22T22:03:42.781Z,93.20
2019-03-22T22:06:13.436Z,97.50
2019-03-22T22:08:42.976Z,97.57
2019-03-22T22:11:12.353Z,97.50
2019-03-22T22:13:42.231Z,98.83
2019-03-22T22:16:11.895Z,103.60
2019-03-22T22:18:41.549Z,102.90
2019-03-22T22:21:12.157Z,101.57
2019-03-22T22:23:41.620Z,109.20
2019-03-22T22:26:21.009Z,104.17
2019-03-22T22:28:50.454Z,103.30
2019-03-22T22:32:21.114Z,108.53
2019-03-22T22:34:50.487Z,100.63
2019-03-22T22:37:20.683Z,97.67
2019-03-22T22:39:50.322Z,102.10
2019-03-22T22:42:19.995Z,105.10
2019-03-22T22:44:50.794Z,104.73
2019-03-22T22:47:20.621Z,98.23
2019-03-22T22:49:50.395Z,99.93
2019-03-22T22:52:19.987Z,109.17
2019-03-22T22:54:49.523Z,106.07
2019-03-22T22:57:19.216Z,103.23
2019-03-22T22:59:48.631Z,104.23
2019-03-22T23:02:18.069Z,95.80
2019-03-22T23:04:47.604Z,111.20
2019-03-22T23:07:17.051Z,108.07
2019-03-22T23:09:46.483Z,106.87
2019-03-22T23:12:15.968Z,102.97
2019-03-22T23:14:45.498Z,98.47
2019-03-22T23:17:14.937Z,112.63
2019-03-22T23:19:44.301Z,112.43
2019-03-22T23:22:13.922Z,113.57
2019-03-22T23:24:44.605Z,100.30
2019-03-22T23:27:14.253Z,108.47
2019-03-22T23:29:43.735Z,101.93
2019-03-22T23:32:13.224Z,102.80
2019-03-22T23:34:42.595Z,105.57
2019-03-22T23:37:12.065Z,97.50
2019-03-22T23:39:41.578Z,109.77
2019-03-22T23:42:10.989Z,100.40
2019-03-22T23:44:40.376Z,98.23
2019-03-22T23:47:09.919Z,96.57
2019-03-22T23:49:39.368Z,95.07
2019-03-22T23:52:08.774Z,84.50
2019-03-22T23:54:38.267Z,89.43
2019-03-22T23:57:07.668Z,91.57
2019-03-22T23:59:37.266Z,89.30
